McGregor, Minnesota
Current Conditions -  °F | °C
As of 8:28 AM on Monday 26 Jan 2015 (Local Time) from KHZX Reporting Station
Overcast Overcast  
Wind Chill: 23°   Ceiling: 700
Heat Index: 28°   Visibility: 5mi
Dew Point: 27°   Wind: 5mph
Humidity: 93%   Direction: 200°SSW
Pressure: 29.62"   Gusts: NA
Location:  46.61°N, 93.31°W
Report Text: KHZX 261428Z AUTO 20004KT 5SM BKN007 OVC012 M02/M03 A2962 RMK AO2
Loading
Personal Weather Stations






























Interactive Weather Map New forecast layout! Learn more

10-Day Weather Forecast

Advertisements
Track Severe Weather on mobile